Time;durP1;ratioP1;P1;durP2;ratioP2;P2;SDS_P1;SDS_P2;PMS_P1;PMS_P2;Temp;Humidity;BMP_temperature;BMP_pressure;BME280_temperature;BME280_humidity;BME280_pressure;Samples;Min_cycle;Max_cycle;Signal;HPM_P1;HPM_P2
2022/11/13 00:01:16;;;;;;;7.50;5.00;;;;;;;10.57;84.87;96199.88;5066623;28;20504;-76
2022/11/13 00:03:42;;;;;;;8.07;4.67;;;;;;;10.62;84.58;96197.56;5072882;28;20581;-78
2022/11/13 00:06:09;;;;;;;10.52;6.03;;;;;;;10.37;85.27;96194.31;5069190;28;20441;-78
2022/11/13 00:08:34;;;;;;;10.45;6.32;;;;;;;10.22;85.92;96201.31;5070454;28;20426;-78
2022/11/13 00:11:05;;;;;;;10.33;6.67;;;;;;;10.09;86.16;96167.66;5046391;28;20418;-75
2022/11/13 00:13:30;;;;;;;10.45;6.60;;;;;;;10.30;86.33;96188.09;5064553;28;20575;-76
2022/11/13 00:16:01;;;;;;;10.02;6.35;;;;;;;10.40;85.37;96195.75;5061191;28;20606;-76
2022/11/13 00:18:28;;;;;;;9.90;6.10;;;;;;;10.10;86.45;96192.97;5063571;28;20544;-76
2022/11/13 00:20:55;;;;;;;11.00;7.03;;;;;;;10.06;87.11;96193.50;5062243;28;20809;-76
2022/11/13 00:23:21;;;;;;;11.73;7.03;;;;;;;10.01;87.63;96187.94;5045585;28;20425;-76
2022/11/13 00:25:46;;;;;;;9.67;6.10;;;;;;;10.25;87.10;96184.34;5068224;28;20433;-76
2022/11/13 00:28:12;;;;;;;8.97;5.93;;;;;;;10.28;86.00;96168.22;5053022;28;20883;-77
2022/11/13 00:30:37;;;;;;;8.43;5.50;;;;;;;10.43;85.64;96183.06;5069005;28;20437;-76
2022/11/13 00:33:03;;;;;;;10.27;5.97;;;;;;;10.38;85.71;96189.88;5065728;28;20421;-76
2022/11/13 00:35:28;;;;;;;8.40;5.33;;;;;;;10.37;86.09;96190.84;5072528;28;20582;-76
2022/11/13 00:37:53;;;;;;;9.32;6.00;;;;;;;10.23;86.41;96194.22;5070080;28;20440;-75
2022/11/13 00:40:19;;;;;;;10.02;5.80;;;;;;;10.07;86.73;96161.75;5052628;28;20462;-74
2022/11/13 00:42:44;;;;;;;11.07;6.88;;;;;;;10.41;86.47;96200.03;5064716;28;20408;-74
2022/11/13 00:45:10;;;;;;;10.80;5.83;;;;;;;10.38;86.11;96192.50;5071413;28;20586;-76
2022/11/13 00:47:35;;;;;;;8.77;5.83;;;;;;;10.50;85.66;96193.69;5070580;28;20410;-76
2022/11/13 00:50:01;;;;;;;9.77;5.20;;;;;;;10.25;85.76;96143.06;5066026;28;20170;-76
2022/11/13 00:52:26;;;;;;;9.17;6.03;;;;;;;10.55;85.48;96191.38;5090150;28;20403;-76
2022/11/13 00:54:51;;;;;;;8.30;6.20;;;;;;;10.58;85.45;96191.81;5090252;28;20463;-76
2022/11/13 00:57:17;;;;;;;9.63;6.20;;;;;;;10.60;85.31;96181.13;5091283;28;20429;-77
2022/11/13 00:59:42;;;;;;;9.40;6.07;;;;;;;10.66;84.83;96183.03;5090842;28;20408;-75
2022/11/13 01:02:08;;;;;;;9.60;6.27;;;;;;;10.62;85.07;96184.41;5076107;28;20278;-75
2022/11/13 01:04:34;;;;;;;7.57;5.07;;;;;;;10.61;85.02;96174.84;5071039;28;20248;-75
2022/11/13 01:06:59;;;;;;;10.47;6.23;;;;;;;10.64;84.88;96177.13;5070681;28;20218;-75
2022/11/13 01:09:25;;;;;;;9.90;5.90;;;;;;;10.69;84.69;96177.41;5070119;28;20436;-75
2022/11/13 01:11:50;;;;;;;9.97;6.43;;;;;;;10.65;85.35;96191.09;5069902;28;20852;-75
2022/11/13 01:14:15;;;;;;;10.17;6.67;;;;;;;10.64;85.18;96185.00;5069446;28;20405;-75
2022/11/13 01:16:41;;;;;;;9.27;6.70;;;;;;;10.63;85.11;96179.94;5069536;28;20394;-75
2022/11/13 01:19:06;;;;;;;9.17;6.57;;;;;;;10.57;85.11;96171.75;5068587;28;20938;-75
2022/11/13 01:21:32;;;;;;;8.30;5.13;;;;;;;10.62;85.04;96180.94;5070771;28;20253;-76
2022/11/13 01:23:57;;;;;;;8.63;5.83;;;;;;;10.67;85.16;96189.13;5069838;28;20505;-76
2022/11/13 01:26:28;;;;;;;10.18;6.32;;;;;;;10.54;85.42;96173.94;5071355;28;20440;-76
2022/11/13 01:28:56;;;;;;;9.65;6.43;;;;;;;10.41;85.50;96157.91;5090796;28;20479;-76
2022/11/13 01:31:24;;;;;;;10.55;6.82;;;;;;;10.36;85.60;96140.03;5090564;28;20423;-76
2022/11/13 01:33:50;;;;;;;9.05;5.97;;;;;;;10.44;86.09;96176.81;5090138;28;20462;-76
2022/11/13 01:36:18;;;;;;;9.38;6.03;;;;;;;10.45;85.99;96170.56;5090213;28;20400;-75
2022/11/13 01:38:43;;;;;;;10.75;6.50;;;;;;;10.53;85.65;96164.41;5089375;28;20424;-75
2022/11/13 01:41:18;;;;;;;8.70;5.70;;;;;;;10.48;85.30;96154.38;5089967;28;20519;-75
2022/11/13 01:43:44;;;;;;;10.00;6.30;;;;;;;10.46;85.76;96174.00;5089782;28;20402;-76
2022/11/13 01:46:26;;;;;;;9.82;6.55;;;;;;;10.45;86.06;96154.75;5089259;28;20459;-75
2022/11/13 01:48:56;;;;;;;12.23;6.28;;;;;;;10.38;85.69;96139.84;5090560;28;21340;-75
2022/11/13 01:51:27;;;;;;;9.88;6.32;;;;;;;10.53;85.33;96148.59;5089966;28;20495;-75
2022/11/13 01:53:53;;;;;;;8.88;6.32;;;;;;;10.55;84.97;96159.78;5089686;28;20408;-75
2022/11/13 01:56:19;;;;;;;10.47;6.30;;;;;;;10.48;85.24;96145.66;5090024;28;20410;-76
2022/11/13 01:58:52;;;;;;;8.70;6.30;;;;;;;10.53;84.69;96140.69;5089818;28;20420;-76
2022/11/13 02:01:17;;;;;;;9.30;6.20;;;;;;;10.64;84.62;96150.78;5071265;28;20776;-76
2022/11/13 02:03:43;;;;;;;9.47;6.30;;;;;;;10.34;85.55;96152.53;5089784;28;20487;-76
2022/11/13 02:06:08;;;;;;;8.63;5.70;;;;;;;10.45;85.71;96159.19;5090213;28;20252;-76
2022/11/13 02:08:34;;;;;;;9.17;6.23;;;;;;;10.43;85.17;96135.69;5089482;28;20412;-76
2022/11/13 02:10:59;;;;;;;10.90;5.93;;;;;;;10.53;84.80;96153.88;5090707;28;20458;-76
2022/11/13 02:13:25;;;;;;;8.93;6.22;;;;;;;10.46;84.30;96126.63;5089640;28;20447;-76
2022/11/13 02:15:52;;;;;;;8.07;5.78;;;;;;;10.65;84.41;96155.06;5089044;28;20480;-76
2022/11/13 02:18:20;;;;;;;8.60;5.97;;;;;;;10.62;83.71;96147.53;5089083;28;20404;-76
2022/11/13 02:21:05;;;;;;;8.52;5.40;;;;;;;10.57;84.41;96155.94;5090450;28;20131;-76
2022/11/13 02:23:52;;;;;;;7.90;5.90;;;;;;;10.69;84.21;96153.72;5071016;28;20416;-76
2022/11/13 02:26:21;;;;;;;8.48;5.65;;;;;;;10.51;83.79;96116.34;5089148;28;20500;-76
2022/11/13 02:28:47;;;;;;;9.88;6.10;;;;;;;10.42;83.67;96114.78;5069257;28;20428;-76
2022/11/13 02:31:13;;;;;;;8.82;5.97;;;;;;;10.33;84.53;96124.56;5054399;28;20443;-75
2022/11/13 02:33:39;;;;;;;9.50;6.10;;;;;;;10.28;85.51;96147.16;5072922;28;20524;-76
2022/11/13 02:36:08;;;;;;;11.77;6.57;;;;;;;10.31;85.56;96152.88;5073305;28;20496;-76
2022/11/13 02:38:35;;;;;;;10.63;6.68;;;;;;;10.20;85.79;96145.44;5072745;28;20441;-76
2022/11/13 02:41:00;;;;;;;8.23;6.00;;;;;;;10.16;85.69;96128.31;5073230;28;20417;-76
2022/11/13 02:43:26;;;;;;;7.68;5.28;;;;;;;10.31;86.21;96141.53;5073174;28;20915;-76
2022/11/13 02:45:51;;;;;;;7.43;5.23;;;;;;;10.17;85.57;96104.47;5073972;28;20695;-76
2022/11/13 02:48:16;;;;;;;8.30;6.10;;;;;;;10.43;85.20;96142.75;5072975;28;20410;-76
2022/11/13 02:50:42;;;;;;;9.47;6.03;;;;;;;10.47;85.31;96144.03;5072692;28;20505;-76
2022/11/13 02:53:08;;;;;;;8.30;5.53;;;;;;;10.43;85.37;96145.41;5072978;28;20420;-76
2022/11/13 02:55:33;;;;;;;8.82;6.03;;;;;;;9.99;86.64;96119.72;5091751;28;20491;-76
2022/11/13 02:57:58;;;;;;;9.77;6.40;;;;;;;10.21;86.37;96147.03;5092808;28;20483;-76
2022/11/13 03:00:24;;;;;;;10.52;6.20;;;;;;;10.05;87.05;96116.38;5093237;28;20442;-75
2022/11/13 03:02:49;;;;;;;11.23;6.47;;;;;;;10.33;86.53;96152.72;5093497;28;20921;-76
2022/11/13 03:05:15;;;;;;;10.13;6.20;;;;;;;10.29;86.25;96133.81;5092362;28;20805;-76
2022/11/13 03:07:41;;;;;;;9.17;5.87;;;;;;;10.33;86.42;96150.06;5092801;28;20408;-76
2022/11/13 03:10:07;;;;;;;12.30;6.32;;;;;;;10.42;86.17;96139.31;5090124;28;20488;-76
2022/11/13 03:12:33;;;;;;;9.88;6.20;;;;;;;10.57;85.44;96131.44;5072156;28;20939;-76
2022/11/13 03:14:58;;;;;;;10.68;6.80;;;;;;;10.84;84.67;96144.00;5054497;28;20406;-75
2022/11/13 03:17:24;;;;;;;8.77;6.33;;;;;;;10.64;85.10;96142.09;5072282;28;20409;-76
2022/11/13 03:19:49;;;;;;;9.03;6.43;;;;;;;10.27;85.95;96114.78;5072216;28;20447;-76
2022/11/13 03:22:14;;;;;;;8.98;6.68;;;;;;;10.54;85.73;96144.97;5089712;28;20447;-76
2022/11/13 03:24:40;;;;;;;11.63;5.90;;;;;;;10.56;85.71;96156.13;5093533;28;20361;-76
2022/11/13 03:27:05;;;;;;;8.70;5.60;;;;;;;10.36;85.76;96120.78;5092648;28;20424;-76
2022/11/13 03:29:30;;;;;;;9.77;5.83;;;;;;;10.52;85.94;96154.84;5090608;28;20400;-76
2022/11/13 03:31:56;;;;;;;9.60;5.55;;;;;;;10.58;86.02;96159.41;5092130;28;20783;-76
2022/11/13 03:34:21;;;;;;;9.90;6.57;;;;;;;10.53;85.88;96157.31;5071850;28;20488;-76
2022/11/13 03:36:47;;;;;;;9.53;6.27;;;;;;;10.35;86.24;96142.81;5075809;28;20440;-76
2022/11/13 03:39:12;;;;;;;11.10;6.33;;;;;;;10.47;86.02;96130.84;5077000;28;20795;-76
2022/11/13 03:41:38;;;;;;;8.73;5.50;;;;;;;10.83;85.31;96158.16;5089843;28;20416;-76
2022/11/13 03:44:03;;;;;;;9.90;6.20;;;;;;;10.81;84.35;96143.56;5092055;28;20496;-76
2022/11/13 03:46:29;;;;;;;11.57;6.20;;;;;;;10.84;84.83;96166.91;5091867;28;20431;-76
2022/11/13 03:48:54;;;;;;;8.17;6.03;;;;;;;10.83;85.14;96159.97;5091767;28;20481;-76
2022/11/13 03:51:19;;;;;;;11.97;5.73;;;;;;;10.87;84.46;96167.38;5093065;28;20253;-76
2022/11/13 03:53:45;;;;;;;9.23;6.33;;;;;;;10.90;84.62;96163.53;5091552;28;20408;-76
2022/11/13 03:56:10;;;;;;;8.23;6.53;;;;;;;10.83;85.03;96171.34;5091535;28;20774;-76
2022/11/13 03:58:36;;;;;;;9.50;6.47;;;;;;;10.83;84.85;96168.72;5091369;28;20400;-76
2022/11/13 04:01:01;;;;;;;9.53;6.60;;;;;;;10.59;84.64;96118.91;5092341;28;20419;-76
2022/11/13 04:03:26;;;;;;;9.30;6.40;;;;;;;10.84;84.75;96172.16;5091879;28;20902;-76
2022/11/13 04:05:52;;;;;;;11.13;6.20;;;;;;;10.85;84.88;96168.53;5091941;28;20505;-76
2022/11/13 04:08:18;;;;;;;9.30;5.57;;;;;;;10.69;84.75;96135.28;5092763;28;20565;-77
2022/11/13 04:10:44;;;;;;;9.85;5.55;;;;;;;10.89;84.85;96165.38;5092613;28;20419;-76
2022/11/13 04:13:10;;;;;;;9.05;5.88;;;;;;;10.89;84.97;96169.81;5092266;28;20452;-76
2022/11/13 04:15:35;;;;;;;9.52;6.28;;;;;;;10.67;85.78;96165.41;5091395;28;20455;-76
2022/11/13 04:18:01;;;;;;;9.87;6.33;;;;;;;10.69;86.17;96150.25;5091160;28;20469;-76
2022/11/13 04:20:26;;;;;;;9.70;6.25;;;;;;;10.59;86.16;96156.59;5092151;28;20942;-76
2022/11/13 04:22:53;;;;;;;9.47;6.27;;;;;;;10.54;86.22;96150.25;5074316;28;20410;-76
2022/11/13 04:25:18;;;;;;;10.65;6.47;;;;;;;10.53;86.24;96122.28;5071228;28;20426;-76
2022/11/13 04:27:44;;;;;;;9.75;5.97;;;;;;;10.67;85.86;96132.00;5071885;28;20421;-76
2022/11/13 04:30:10;;;;;;;9.63;6.20;;;;;;;10.74;85.94;96156.63;5071767;28;20409;-76
2022/11/13 04:32:35;;;;;;;9.68;6.68;;;;;;;10.57;86.77;96155.13;5056096;28;20903;-76
2022/11/13 04:35:00;;;;;;;9.70;6.30;;;;;;;10.68;86.58;96153.88;5090743;28;20415;-76
2022/11/13 04:37:26;;;;;;;8.47;6.23;;;;;;;10.78;86.55;96165.81;5076339;28;20430;-76
2022/11/13 04:39:51;;;;;;;11.23;7.25;;;;;;;11.00;85.43;96158.00;5070599;28;20539;-76
2022/11/13 04:45:00;;;;;;;9.57;6.80;;;;;;;10.96;85.19;96154.94;5090378;28;20532;-76
2022/11/13 04:47:26;;;;;;;10.68;7.47;;;;;;;11.06;85.05;96158.13;5090902;28;20926;-75
2022/11/13 04:49:51;;;;;;;12.10;8.07;;;;;;;10.85;85.02;96160.63;5091331;28;20438;-75
2022/11/13 04:52:17;;;;;;;16.02;8.48;;;;;;;10.67;86.33;96157.50;5090199;28;20411;-76
2022/11/13 04:54:42;;;;;;;15.73;9.10;;;;;;;10.59;86.93;96158.41;5090657;28;20902;-76
2022/11/13 04:57:08;;;;;;;14.20;9.37;;;;;;;10.63;86.98;96153.63;5072907;28;20427;-76
2022/11/13 04:59:33;;;;;;;16.53;9.23;;;;;;;10.76;86.55;96167.78;5073059;28;20484;-76
2022/11/13 05:01:58;;;;;;;18.88;10.70;;;;;;;10.69;86.43;96160.78;5083940;28;20474;-76
2022/11/13 05:04:24;;;;;;;15.60;10.20;;;;;;;10.89;85.83;96159.28;5069891;28;20800;-76
2022/11/13 05:06:49;;;;;;;17.90;11.07;;;;;;;10.91;85.19;96170.44;5069449;28;20434;-76
2022/11/13 05:09:15;;;;;;;15.53;9.60;;;;;;;10.90;84.69;96159.09;5067309;28;20436;-76
2022/11/13 05:11:40;;;;;;;15.55;9.63;;;;;;;10.72;85.72;96161.25;5061605;28;20773;-76
2022/11/13 05:14:06;;;;;;;16.63;10.77;;;;;;;10.68;86.17;96146.81;5060968;28;20429;-76
2022/11/13 05:16:34;;;;;;;18.67;12.05;;;;;;;10.79;86.40;96172.72;5056961;28;20428;-76
2022/11/13 05:18:59;;;;;;;19.33;12.00;;;;;;;10.64;86.49;96158.69;5056910;28;20427;-76
2022/11/13 05:21:25;;;;;;;18.60;11.87;;;;;;;10.70;86.87;96162.44;5057345;28;20798;-75
2022/11/13 05:23:50;;;;;;;16.20;11.17;;;;;;;10.90;85.77;96168.81;5057979;28;20429;-76
2022/11/13 05:26:17;;;;;;;17.73;11.63;;;;;;;11.06;85.04;96168.66;5058862;28;20438;-76
2022/11/13 05:28:42;;;;;;;16.13;10.53;;;;;;;11.10;84.54;96177.81;5059933;28;20257;-76
2022/11/13 05:31:11;;;;;;;17.70;12.20;;;;;;;10.92;84.42;96143.91;5062370;28;20575;-75
2022/11/13 05:33:38;;;;;;;18.73;11.38;;;;;;;10.85;85.44;96169.34;5059574;28;20425;-75
2022/11/13 05:36:06;;;;;;;17.40;9.77;;;;;;;10.89;85.47;96175.91;5064551;28;20163;-75
2022/11/13 05:38:32;;;;;;;16.73;11.10;;;;;;;10.84;85.22;96153.72;5060316;28;20433;-76
2022/11/13 05:41:11;;;;;;;18.60;12.07;;;;;;;10.86;84.48;96138.56;5058640;28;20430;-76
2022/11/13 05:43:38;;;;;;;18.30;11.17;;;;;;;11.10;84.25;96180.47;5064403;28;20509;-76
2022/11/13 05:46:11;;;;;;;18.23;11.65;;;;;;;10.99;84.79;96180.91;5068445;28;20993;-77
2022/11/13 05:48:37;;;;;;;18.67;11.57;;;;;;;10.99;85.00;96186.16;5069801;28;20426;-75
2022/11/13 05:51:05;;;;;;;18.73;11.65;;;;;;;10.87;85.07;96183.16;5069501;28;20413;-74
2022/11/13 05:53:32;;;;;;;17.33;10.70;;;;;;;10.75;85.30;96166.16;5070220;28;20452;-74
2022/11/13 05:56:07;;;;;;;18.77;11.77;;;;;;;10.93;84.70;96190.34;5060767;28;20417;-74
2022/11/13 05:58:33;;;;;;;18.77;11.97;;;;;;;10.85;85.79;96184.34;5064760;28;20410;-76
2022/11/13 06:01:05;;;;;;;18.43;11.20;;;;;;;10.98;84.86;96195.88;5070293;28;20420;-73
2022/11/13 06:03:31;;;;;;;17.27;10.85;;;;;;;10.94;83.95;96180.63;5069129;28;20413;-73
2022/11/13 06:05:57;;;;;;;18.25;10.05;;;;;;;10.88;84.43;96190.09;5083213;28;20644;-75
2022/11/13 06:08:22;;;;;;;19.73;11.80;;;;;;;10.91;84.54;96202.06;5079045;28;20909;-75
2022/11/13 06:10:48;;;;;;;15.90;11.00;;;;;;;10.92;84.03;96193.97;5073217;28;20406;-75
2022/11/13 06:13:13;;;;;;;21.17;10.40;;;;;;;10.92;84.04;96199.25;5074560;28;20181;-75
2022/11/13 06:15:38;;;;;;;18.63;11.13;;;;;;;10.84;83.93;96198.50;5092829;28;20411;-74
2022/11/13 06:18:04;;;;;;;20.20;12.67;;;;;;;10.93;83.91;96200.06;5093455;28;20440;-75
2022/11/13 06:20:29;;;;;;;19.10;11.60;;;;;;;11.05;83.73;96206.53;5086611;28;20506;-74
2022/11/13 06:22:57;;;;;;;18.00;12.33;;;;;;;10.92;84.17;96195.78;5073115;28;20908;-74
2022/11/13 06:25:22;;;;;;;18.63;12.20;;;;;;;11.02;83.62;96203.44;5074516;28;20436;-74
2022/11/13 06:27:48;;;;;;;20.23;12.20;;;;;;;10.94;83.24;96191.16;5073152;28;20406;-74
2022/11/13 06:30:13;;;;;;;18.13;11.30;;;;;;;11.05;82.83;96201.28;5072660;28;20936;-74
2022/11/13 06:32:39;;;;;;;17.87;10.90;;;;;;;10.80;83.20;96187.53;5072583;28;20414;-75
2022/11/13 06:35:04;;;;;;;18.20;10.93;;;;;;;10.84;83.53;96207.22;5072951;28;20413;-74
2022/11/13 06:37:30;;;;;;;18.85;10.82;;;;;;;10.80;83.91;96213.88;5073395;28;20437;-74
2022/11/13 06:39:55;;;;;;;18.50;11.47;;;;;;;10.73;84.15;96207.66;5072011;28;20921;-74
2022/11/13 06:42:20;;;;;;;17.57;11.33;;;;;;;10.82;84.05;96209.22;5071922;28;20410;-74
2022/11/13 06:44:46;;;;;;;23.83;11.17;;;;;;;10.85;83.58;96213.31;5072555;28;20453;-74
2022/11/13 06:47:11;;;;;;;16.95;10.95;;;;;;;11.00;83.00;96200.16;5072204;28;20434;-75
2022/11/13 06:49:36;;;;;;;16.37;8.77;;;;;;;10.96;82.55;96195.28;5089346;28;20268;-74
2022/11/13 06:52:02;;;;;;;16.85;11.30;;;;;;;10.99;82.59;96199.34;5092127;28;20412;-75
2022/11/13 06:54:27;;;;;;;18.55;11.75;;;;;;;10.85;83.09;96193.06;5092060;28;20416;-74
2022/11/13 06:56:53;;;;;;;16.50;10.27;;;;;;;10.90;83.24;96206.50;5093267;28;21021;-76
2022/11/13 06:59:18;;;;;;;20.23;10.20;;;;;;;10.98;82.91;96209.06;5094276;28;20182;-74
2022/11/13 07:01:43;;;;;;;18.63;10.93;;;;;;;10.97;82.60;96206.63;5074712;28;20801;-75
2022/11/13 07:04:11;;;;;;;17.73;10.80;;;;;;;10.88;82.76;96205.06;5073054;28;20414;-74
2022/11/13 07:06:36;;;;;;;17.35;11.02;;;;;;;10.75;83.19;96199.56;5071909;28;20928;-76
2022/11/13 07:09:02;;;;;;;18.38;11.50;;;;;;;10.75;83.63;96200.41;5054900;28;20410;-75
2022/11/13 07:11:27;;;;;;;18.00;10.97;;;;;;;10.97;82.14;96204.00;5072625;28;20448;-73
2022/11/13 07:13:53;;;;;;;14.33;9.30;;;;;;;11.02;81.79;96206.06;5073288;28;20257;-75
2022/11/13 07:16:18;;;;;;;14.18;9.43;;;;;;;10.89;82.13;96217.25;5073381;28;20352;-75
2022/11/13 07:18:53;;;;;;;17.93;10.30;;;;;;;10.77;82.75;96213.41;5072702;28;20410;-74
2022/11/13 07:21:20;;;;;;;17.70;10.37;;;;;;;10.80;81.92;96215.69;5072516;28;20478;-75
2022/11/13 07:23:49;;;;;;;17.98;11.43;;;;;;;10.59;82.78;96192.63;5071405;28;20414;-74
2022/11/13 07:26:14;;;;;;;16.52;10.27;;;;;;;10.93;81.75;96215.88;5072499;28;20440;-75
2022/11/13 07:28:40;;;;;;;18.67;9.50;;;;;;;10.98;81.34;96205.63;5072954;28;20179;-74
2022/11/13 07:31:06;;;;;;;18.30;11.55;;;;;;;10.96;80.98;96192.63;5072084;28;20405;-74
2022/11/13 07:33:31;;;;;;;15.67;9.23;;;;;;;10.78;81.43;96176.34;5078216;28;20181;-75
2022/11/13 07:35:57;;;;;;;16.50;9.47;;;;;;;10.85;82.28;96203.59;5093112;28;20253;-75
2022/11/13 07:38:23;;;;;;;15.93;9.57;;;;;;;10.63;82.18;96180.78;5089445;28;20175;-75
2022/11/13 07:40:48;;;;;;;20.50;10.40;;;;;;;10.77;83.10;96211.56;5054387;28;20196;-75
2022/11/13 07:43:14;;;;;;;19.40;10.43;;;;;;;10.83;82.70;96217.94;5072369;28;20170;-75
2022/11/13 07:45:39;;;;;;;21.37;11.20;;;;;;;10.77;82.46;96200.22;5072722;28;20269;-76
2022/11/13 07:48:05;;;;;;;19.10;10.43;;;;;;;11.04;81.93;96212.81;5070930;28;20236;-75
2022/11/13 07:50:33;;;;;;;21.53;10.33;;;;;;;11.01;82.02;96213.16;5072506;28;20181;-75
2022/11/13 07:53:02;;;;;;;22.13;10.90;;;;;;;10.82;81.58;96177.59;5072320;28;20240;-76
2022/11/13 07:55:28;;;;;;;18.00;10.30;;;;;;;11.13;81.42;96216.19;5071723;28;20175;-75
2022/11/13 07:57:57;;;;;;;17.40;9.63;;;;;;;11.08;81.16;96214.06;5072339;28;20653;-75
2022/11/13 08:00:27;;;;;;;20.90;10.93;;;;;;;11.01;81.55;96213.16;5071956;28;20249;-75
2022/11/13 08:02:53;;;;;;;18.47;10.63;;;;;;;10.99;81.50;96209.88;5071812;28;20204;-75
2022/11/13 08:05:19;;;;;;;19.23;9.53;;;;;;;10.98;81.13;96201.16;5071808;28;20228;-76
2022/11/13 08:07:48;;;;;;;15.53;9.60;;;;;;;11.09;81.13;96214.91;5071601;28;20776;-75
2022/11/13 08:10:15;;;;;;;17.63;9.93;;;;;;;11.07;80.90;96209.78;5071567;28;20208;-75
2022/11/13 08:12:40;;;;;;;16.60;9.47;;;;;;;11.06;80.84;96221.38;5075248;28;20176;-76
2022/11/13 08:15:06;;;;;;;20.03;9.33;;;;;;;10.95;81.12;96212.06;5091644;28;20181;-76
2022/11/13 08:17:32;;;;;;;16.60;9.83;;;;;;;11.02;81.01;96209.53;5091490;28;20492;-75
2022/11/13 08:19:57;;;;;;;18.37;10.53;;;;;;;11.00;81.27;96210.69;5091709;28;20176;-75
2022/11/13 08:22:22;;;;;;;19.63;11.03;;;;;;;11.07;80.96;96206.38;5091539;28;20174;-75
2022/11/13 08:24:48;;;;;;;21.67;10.63;;;;;;;10.90;80.71;96174.06;5091548;28;20177;-75
2022/11/13 08:27:13;;;;;;;18.07;10.23;;;;;;;11.16;79.96;96215.81;5091168;28;20229;-75
2022/11/13 08:29:39;;;;;;;17.73;9.73;;;;;;;11.22;79.72;96207.19;5091246;28;20177;-75
2022/11/13 08:32:04;;;;;;;16.77;8.87;;;;;;;11.24;79.36;96215.75;5091460;28;20200;-76
2022/11/13 08:34:30;;;;;;;17.20;9.70;;;;;;;11.21;79.34;96211.66;5091788;28;20177;-76
2022/11/13 08:36:55;;;;;;;20.93;10.80;;;;;;;11.07;80.13;96211.66;5091300;28;20166;-75
2022/11/13 08:39:20;;;;;;;21.80;11.03;;;;;;;11.06;80.22;96208.19;5091133;28;20646;-75
2022/11/13 08:41:46;;;;;;;19.67;11.47;;;;;;;10.93;80.99;96218.50;5091122;28;20184;-75
2022/11/13 08:44:13;;;;;;;19.87;11.73;;;;;;;10.86;80.74;96209.69;5091277;28;20173;-75
2022/11/13 08:46:38;;;;;;;19.27;10.07;;;;;;;10.90;80.75;96230.22;5090920;28;20679;-75
2022/11/13 08:49:04;;;;;;;17.57;9.83;;;;;;;10.68;80.82;96188.94;5091106;28;20181;-75
2022/11/13 08:51:29;;;;;;;19.00;10.10;;;;;;;10.98;80.86;96229.34;5090962;28;20181;-75
2022/11/13 08:53:54;;;;;;;18.10;11.03;;;;;;;11.06;80.61;96226.63;5090747;28;20260;-75
2022/11/13 08:56:20;;;;;;;20.77;11.43;;;;;;;11.03;80.70;96226.97;5090875;28;20252;-75
2022/11/13 08:58:45;;;;;;;19.70;12.30;;;;;;;11.08;80.65;96232.53;5091007;28;20211;-75
2022/11/13 09:01:11;;;;;;;16.90;10.63;;;;;;;11.16;80.21;96237.72;5090769;28;20253;-75
2022/11/13 09:03:36;;;;;;;17.30;9.70;;;;;;;11.04;80.12;96233.06;5090795;28;20648;-75
2022/11/13 09:06:08;;;;;;;15.80;10.30;;;;;;;11.08;80.43;96232.53;5090511;28;20308;-75
2022/11/13 09:08:33;;;;;;;18.67;11.10;;;;;;;11.18;80.51;96234.91;5076545;28;20266;-75
2022/11/13 09:11:04;;;;;;;17.63;11.07;;;;;;;11.11;80.21;96226.91;5070337;28;20301;-75
2022/11/13 09:13:31;;;;;;;17.50;11.27;;;;;;;10.93;80.11;96216.69;5070241;28;20178;-75
2022/11/13 09:16:00;;;;;;;19.63;11.50;;;;;;;11.10;80.81;96237.63;5070307;28;20174;-75
2022/11/13 09:18:27;;;;;;;17.50;11.10;;;;;;;11.19;80.34;96226.00;5070452;28;20167;-76
2022/11/13 09:20:52;;;;;;;22.47;11.70;;;;;;;11.34;79.58;96224.19;5070302;28;20627;-75
2022/11/13 09:23:18;;;;;;;19.70;11.07;;;;;;;11.45;78.82;96225.56;5070313;28;20265;-75
2022/11/13 09:25:43;;;;;;;18.60;12.20;;;;;;;11.67;79.15;96219.38;5070258;28;20198;-76
2022/11/13 09:28:10;;;;;;;16.67;11.07;;;;;;;11.90;77.49;96233.28;5070398;28;20202;-76
2022/11/13 09:30:38;;;;;;;18.37;10.83;;;;;;;11.97;77.15;96231.53;5070451;28;20641;-76
2022/11/13 09:33:04;;;;;;;21.73;11.83;;;;;;;11.97;77.02;96220.16;5070533;28;20221;-76
2022/11/13 09:35:34;;;;;;;19.50;12.13;;;;;;;12.16;77.13;96216.94;5070408;28;20170;-77
2022/11/13 09:38:07;;;;;;;20.50;11.33;;;;;;;12.38;75.44;96217.75;5070368;28;20178;-78
2022/11/13 09:40:34;;;;;;;22.20;11.03;;;;;;;12.23;75.38;96220.44;5069546;28;20190;-76
2022/11/13 09:43:03;;;;;;;16.13;10.87;;;;;;;11.96;76.64;96205.31;5070249;28;20170;-76
2022/11/13 09:45:30;;;;;;;19.43;10.70;;;;;;;12.09;76.59;96202.84;5070552;28;20210;-76
2022/11/13 09:48:06;;;;;;;16.50;10.33;;;;;;;12.24;75.62;96208.06;5069969;28;20179;-77
2022/11/13 09:50:32;;;;;;;14.63;9.97;;;;;;;12.19;75.26;96197.28;5070279;28;20290;-76
2022/11/13 09:52:58;;;;;;;15.73;10.27;;;;;;;12.24;75.24;96200.97;5069983;28;20204;-77
2022/11/13 09:55:37;;;;;;;17.20;10.97;;;;;;;12.30;75.62;96205.50;5069814;28;20166;-77
2022/11/13 09:58:27;;;;;;;16.73;10.60;;;;;;;12.35;74.86;96195.19;5069912;28;20261;-76
2022/11/13 10:00:53;;;;;;;17.77;10.23;;;;;;;12.44;74.74;96195.91;5070140;28;20176;-77
2022/11/13 10:03:23;;;;;;;17.03;11.03;;;;;;;12.19;75.10;96205.19;5070118;28;20273;-76
2022/11/13 10:06:07;;;;;;;18.40;10.23;;;;;;;11.93;76.07;96203.91;5069346;28;20218;-76
2022/11/13 10:08:35;;;;;;;16.77;10.83;;;;;;;11.72;76.85;96199.34;5069767;28;20682;-76
2022/11/13 10:11:25;;;;;;;20.27;11.57;;;;;;;11.67;77.49;96188.53;5069518;28;20210;-76
2022/11/13 10:13:55;;;;;;;19.00;10.77;;;;;;;11.76;76.62;96186.66;5069730;28;20170;-76
2022/11/13 10:16:34;;;;;;;17.87;10.67;;;;;;;11.90;76.16;96200.78;5079493;28;20173;-77
2022/11/13 10:19:26;;;;;;;17.90;10.63;;;;;;;11.99;76.38;96182.03;5076804;28;20173;-78
2022/11/13 10:22:11;;;;;;;19.50;10.93;;;;;;;11.97;75.41;96170.00;5074506;28;20222;-77
2022/11/13 10:24:44;;;;;;;20.67;11.13;;;;;;;12.09;75.61;96184.38;5070442;28;20256;-77
2022/11/13 10:27:11;;;;;;;18.17;11.83;;;;;;;12.18;75.24;96191.16;5072866;28;20198;-78
2022/11/13 10:29:37;;;;;;;17.70;10.93;;;;;;;12.24;74.75;96190.41;5090636;28;20166;-77
2022/11/13 10:32:17;;;;;;;16.63;10.87;;;;;;;12.13;74.37;96175.06;5083936;28;20581;-76
2022/11/13 10:35:00;;;;;;;18.60;11.00;;;;;;;12.04;74.69;96147.16;5073305;28;20307;-78
2022/11/13 10:37:57;;;;;;;21.07;11.37;;;;;;;12.22;74.21;96173.94;5090303;28;20656;-75
2022/11/13 10:40:28;;;;;;;21.93;11.50;;;;;;;12.06;74.44;96150.41;5076307;28;20247;-76
2022/11/13 10:43:03;;;;;;;20.40;10.70;;;;;;;12.19;74.87;96176.97;5069950;28;20178;-75
2022/11/13 10:45:28;;;;;;;19.23;11.40;;;;;;;12.19;74.04;96173.50;5072286;28;20177;-76
2022/11/13 10:47:54;;;;;;;19.93;10.93;;;;;;;12.23;73.78;96167.66;5090157;28;20181;-76
2022/11/13 10:50:23;;;;;;;15.47;10.10;;;;;;;12.24;74.06;96163.19;5090282;28;20217;-76
2022/11/13 10:52:52;;;;;;;15.97;10.27;;;;;;;12.20;74.70;96146.06;5084070;28;20202;-77
2022/11/13 10:55:32;;;;;;;22.40;11.40;;;;;;;12.42;73.41;96167.03;5073642;28;20181;-75
2022/11/13 10:58:00;;;;;;;17.10;10.93;;;;;;;12.50;73.01;96162.63;5081524;28;20190;-75
2022/11/13 11:00:33;;;;;;;21.27;12.27;;;;;;;12.52;73.40;96160.59;5094247;28;20184;-77
2022/11/13 11:02:59;;;;;;;17.67;11.10;;;;;;;12.48;72.55;96157.50;5094291;28;20192;-77
2022/11/13 11:05:26;;;;;;;18.63;11.50;;;;;;;12.31;73.85;96162.25;5093811;28;20296;-77
2022/11/13 11:07:56;;;;;;;23.70;11.93;;;;;;;12.30;73.87;96157.97;5094031;28;20241;-77
2022/11/13 11:10:33;;;;;;;18.27;11.40;;;;;;;12.39;73.82;96161.28;5079502;28;20174;-76
2022/11/13 11:13:08;;;;;;;16.83;11.20;;;;;;;12.08;74.06;96143.13;5074525;28;20178;-77
2022/11/13 11:15:57;;;;;;;21.50;12.33;;;;;;;11.98;74.23;96158.47;5046993;28;20171;-76
2022/11/13 11:18:41;;;;;;;19.80;10.20;;;;;;;11.89;75.05;96147.19;5059798;28;20191;-78
2022/11/13 11:21:12;;;;;;;19.93;12.17;;;;;;;11.88;74.85;96147.38;5069217;28;20193;-77
2022/11/13 11:23:49;;;;;;;19.20;11.07;;;;;;;11.88;74.96;96144.75;5066692;28;20175;-77
2022/11/13 11:26:42;;;;;;;18.80;10.90;;;;;;;11.84;75.00;96144.31;5068793;28;20678;-77
2022/11/13 11:29:32;;;;;;;25.53;11.33;;;;;;;11.86;75.21;96149.38;5072576;28;20178;-76